createdAt,value
2017-10-27T00:00:01.064Z,12.40
2017-10-27T00:01:03.625Z,12.40
2017-10-27T00:02:07.563Z,12.40
2017-10-27T00:03:10.137Z,12.40
2017-10-27T00:04:14.241Z,12.30
2017-10-27T00:05:16.944Z,12.30
2017-10-27T00:06:19.682Z,12.30
2017-10-27T00:07:22.518Z,12.30
2017-10-27T00:08:26.116Z,12.40
2017-10-27T00:09:29.382Z,12.40
2017-10-27T00:10:32.126Z,12.30
2017-10-27T00:11:34.696Z,12.40
2017-10-27T00:12:37.385Z,12.40
2017-10-27T00:13:39.868Z,12.40
2017-10-27T00:14:43.320Z,12.40
2017-10-27T00:15:45.815Z,12.40
2017-10-27T00:16:48.391Z,12.40
2017-10-27T00:17:50.891Z,12.40
2017-10-27T00:18:53.725Z,12.40
2017-10-27T00:19:56.233Z,12.40
2017-10-27T00:20:59.122Z,12.40
2017-10-27T00:22:01.632Z,12.40
2017-10-27T00:23:05.004Z,12.40
2017-10-27T00:24:07.488Z,12.40
2017-10-27T00:25:10.956Z,12.40
2017-10-27T00:26:13.514Z,12.40
2017-10-27T00:27:16.307Z,12.40
2017-10-27T00:28:18.809Z,12.40
2017-10-27T00:29:21.618Z,12.40
2017-10-27T00:30:24.214Z,12.40
2017-10-27T00:31:27.586Z,12.40
2017-10-27T00:32:30.206Z,12.30
2017-10-27T00:33:32.906Z,12.40
2017-10-27T00:34:35.395Z,12.30
2017-10-27T00:35:37.950Z,12.20
2017-10-27T00:36:40.435Z,12.10
2017-10-27T00:37:43.905Z,12.00
2017-10-27T00:38:47.159Z,12.00
2017-10-27T00:39:49.859Z,12.00
2017-10-27T00:40:52.340Z,11.90
2017-10-27T00:41:56.712Z,11.70
2017-10-27T00:42:59.201Z,11.70
2017-10-27T00:44:01.739Z,11.60
2017-10-27T00:45:04.245Z,11.60
2017-10-27T00:46:06.891Z,11.50
2017-10-27T00:47:09.402Z,11.60
2017-10-27T00:48:12.184Z,11.50
2017-10-27T00:49:14.751Z,11.50
2017-10-27T00:50:17.522Z,11.50
2017-10-27T00:51:19.987Z,11.50
2017-10-27T00:52:22.793Z,11.50
2017-10-27T00:53:25.982Z,11.40
2017-10-27T00:54:28.759Z,11.40
2017-10-27T00:55:31.278Z,11.40
2017-10-27T00:56:33.790Z,11.40
2017-10-27T00:57:36.308Z,11.40
2017-10-27T00:58:38.901Z,11.30
2017-10-27T00:59:41.427Z,11.30
2017-10-27T01:00:46.168Z,11.30
2017-10-27T01:01:48.890Z,11.30
2017-10-27T01:02:52.129Z,11.30
2017-10-27T01:03:55.563Z,11.30
2017-10-27T01:04:58.282Z,11.30
2017-10-27T01:06:06.913Z,11.30
2017-10-27T01:07:16.230Z,11.30
2017-10-27T01:08:21.810Z,11.30
2017-10-27T01:09:30.986Z,11.30
2017-10-27T01:10:43.099Z,11.30
2017-10-27T01:11:50.368Z,11.30
2017-10-27T01:12:56.801Z,11.30
2017-10-27T01:14:06.357Z,11.20
2017-10-27T01:15:19.652Z,11.30
2017-10-27T01:16:30.227Z,11.30
2017-10-27T01:17:50.010Z,11.30
2017-10-27T01:19:01.478Z,11.20
2017-10-27T01:20:14.002Z,11.20
2017-10-27T01:21:25.462Z,11.20
2017-10-27T01:22:34.811Z,11.20
2017-10-27T01:23:54.741Z,11.20
2017-10-27T01:25:13.191Z,11.20
2017-10-27T01:26:17.589Z,11.10
2017-10-27T01:27:22.218Z,11.10
2017-10-27T01:28:32.980Z,11.10
2017-10-27T01:29:38.276Z,11.10
2017-10-27T01:30:48.452Z,11.00
2017-10-27T01:31:56.655Z,11.00
2017-10-27T01:33:01.464Z,11.00
2017-10-27T01:34:10.748Z,11.00
2017-10-27T01:35:15.789Z,11.00
2017-10-27T01:36:20.294Z,11.00
2017-10-27T01:37:22.839Z,11.10
2017-10-27T01:38:27.389Z,11.10
2017-10-27T01:39:29.888Z,11.10
2017-10-27T01:40:32.722Z,11.10
2017-10-27T01:41:35.243Z,11.10
2017-10-27T01:42:38.679Z,11.10
2017-10-27T01:43:41.204Z,11.10
2017-10-27T01:44:44.970Z,11.10
2017-10-27T01:45:47.504Z,11.10
2017-10-27T01:46:50.232Z,11.10
2017-10-27T01:47:53.516Z,11.10
2017-10-27T01:48:56.204Z,11.00
2017-10-27T01:49:59.468Z,11.00
2017-10-27T01:51:02.158Z,11.00
2017-10-27T01:52:05.462Z,11.00
2017-10-27T01:53:08.114Z,11.00
2017-10-27T01:54:10.687Z,10.90
2017-10-27T01:55:13.427Z,10.90
2017-10-27T01:56:15.944Z,10.90
2017-10-27T01:57:18.759Z,10.90
2017-10-27T01:58:22.019Z,10.90
2017-10-27T01:59:24.716Z,10.90
2017-10-27T02:00:28.004Z,10.90
2017-10-27T02:01:30.947Z,10.90
2017-10-27T02:02:33.626Z,10.90
2017-10-27T02:03:37.245Z,10.90
2017-10-27T02:04:39.756Z,10.90
2017-10-27T02:05:42.921Z,10.90
2017-10-27T02:06:45.734Z,10.90
2017-10-27T02:07:48.716Z,10.90
2017-10-27T02:08:51.558Z,10.90
2017-10-27T02:09:54.300Z,10.90
2017-10-27T02:10:57.078Z,10.90
2017-10-27T02:12:00.453Z,10.80
2017-10-27T02:13:04.230Z,10.80
2017-10-27T02:14:07.693Z,10.80
2017-10-27T02:15:10.462Z,10.80
2017-10-27T02:16:14.967Z,10.80
2017-10-27T02:17:17.631Z,10.80
2017-10-27T02:18:20.548Z,10.80
2017-10-27T02:19:23.840Z,10.70
2017-10-27T02:20:27.535Z,10.70
2017-10-27T02:21:31.605Z,10.60
2017-10-27T02:22:34.662Z,10.60
2017-10-27T02:23:37.147Z,10.60
2017-10-27T02:24:40.030Z,10.60
2017-10-27T02:25:42.841Z,10.50
2017-10-27T02:26:46.557Z,10.50
2017-10-27T02:27:49.404Z,10.40
2017-10-27T02:28:53.116Z,10.50
2017-10-27T02:29:55.759Z,10.40
2017-10-27T02:30:59.592Z,10.40
2017-10-27T02:32:02.588Z,10.40
2017-10-27T02:33:05.273Z,10.40
2017-10-27T02:34:07.952Z,10.40
2017-10-27T02:35:10.540Z,10.40
2017-10-27T02:36:13.864Z,10.50
2017-10-27T02:37:16.496Z,10.40
2017-10-27T02:38:20.027Z,10.40
2017-10-27T02:39:22.860Z,10.40
2017-10-27T02:40:26.171Z,10.40
2017-10-27T02:41:30.594Z,10.40
2017-10-27T02:42:33.761Z,10.50
2017-10-27T02:43:37.560Z,10.50
2017-10-27T02:44:42.210Z,10.50
2017-10-27T02:45:46.889Z,10.50
2017-10-27T02:46:51.583Z,10.50
2017-10-27T02:47:57.396Z,10.50
2017-10-27T02:49:01.750Z,10.40
2017-10-27T02:50:06.995Z,10.50
2017-10-27T02:51:13.543Z,10.40
2017-10-27T02:52:17.964Z,10.40
2017-10-27T02:53:21.507Z,10.50
2017-10-27T02:54:25.394Z,10.50
2017-10-27T02:55:29.223Z,10.50
2017-10-27T02:56:34.221Z,10.50
2017-10-27T02:57:38.683Z,10.50
2017-10-27T03:00:03.224Z,10.50
2017-10-27T03:01:10.471Z,10.50
2017-10-27T03:02:15.063Z,10.40
2017-10-27T03:03:22.940Z,10.50
2017-10-27T03:04:28.581Z,10.50
2017-10-27T03:05:33.314Z,10.50
2017-10-27T03:06:37.645Z,10.50
2017-10-27T03:07:40.335Z,10.40
2017-10-27T03:08:42.908Z,10.50
2017-10-27T03:09:45.522Z,10.50
2017-10-27T03:10:48.473Z,10.50
2017-10-27T03:11:51.998Z,10.40
2017-10-27T03:12:54.604Z,10.40
2017-10-27T03:13:57.201Z,10.40
2017-10-27T03:14:59.944Z,10.40
2017-10-27T03:16:02.500Z,10.40
2017-10-27T03:17:05.321Z,10.40
2017-10-27T03:18:08.216Z,10.40
2017-10-27T03:19:11.827Z,10.40
2017-10-27T03:20:14.774Z,10.40
2017-10-27T03:21:19.924Z,10.40
2017-10-27T03:22:22.443Z,10.40
2017-10-27T03:23:26.067Z,10.40
2017-10-27T03:24:28.595Z,10.30
2017-10-27T03:25:32.022Z,10.30
2017-10-27T03:26:34.573Z,10.30
2017-10-27T03:27:37.176Z,10.30
2017-10-27T03:28:39.707Z,10.20
2017-10-27T03:29:42.216Z,10.30
2017-10-27T03:30:44.739Z,10.20
2017-10-27T03:31:47.257Z,10.20
2017-10-27T03:32:49.747Z,10.20
2017-10-27T03:33:53.207Z,10.30
2017-10-27T03:34:55.707Z,10.20
2017-10-27T03:35:59.147Z,10.20
2017-10-27T03:37:03.487Z,10.20
2017-10-27T03:38:07.151Z,10.10
2017-10-27T03:39:10.263Z,10.10
2017-10-27T03:40:14.511Z,10.00
2017-10-27T03:41:17.166Z,10.00
2017-10-27T03:42:19.772Z,10.00
2017-10-27T03:43:22.728Z,10.00
2017-10-27T03:44:25.453Z,10.00
2017-10-27T03:45:29.548Z,9.80
2017-10-27T03:46:32.293Z,9.80
2017-10-27T03:47:34.793Z,9.80
2017-10-27T03:48:38.597Z,9.70
2017-10-27T03:49:41.845Z,9.70
2017-10-27T03:50:45.080Z,9.60
2017-10-27T03:51:47.550Z,9.60
2017-10-27T03:52:50.214Z,9.50
2017-10-27T03:53:52.832Z,9.50
2017-10-27T03:54:55.472Z,9.50
2017-10-27T03:55:57.956Z,9.40
2017-10-27T03:57:00.553Z,9.40
2017-10-27T03:58:03.034Z,9.40
2017-10-27T03:59:07.268Z,9.30
2017-10-27T04:00:09.758Z,9.30
2017-10-27T04:01:13.395Z,9.30
2017-10-27T04:02:16.629Z,9.30
2017-10-27T04:03:19.308Z,9.30
2017-10-27T04:04:23.339Z,9.30
2017-10-27T04:05:26.828Z,9.40
2017-10-27T04:06:30.116Z,9.30
2017-10-27T04:07:33.660Z,9.30
2017-10-27T04:08:36.221Z,9.30
2017-10-27T04:09:39.759Z,9.30
2017-10-27T04:10:54.371Z,9.30
2017-10-27T04:11:59.856Z,9.30
2017-10-27T04:13:03.157Z,9.30
2017-10-27T04:14:07.052Z,9.30
2017-10-27T04:15:11.666Z,9.30
2017-10-27T04:16:16.253Z,9.30
2017-10-27T04:17:28.906Z,9.30
2017-10-27T04:18:31.962Z,9.30
2017-10-27T04:19:40.828Z,9.20
2017-10-27T04:20:43.637Z,9.20
2017-10-27T04:21:48.279Z,9.20
2017-10-27T04:22:52.604Z,9.20
2017-10-27T04:24:02.621Z,9.20
2017-10-27T04:25:05.346Z,9.40
2017-10-27T04:26:10.916Z,9.40
2017-10-27T04:27:22.403Z,9.50
2017-10-27T04:28:24.988Z,9.50
2017-10-27T04:29:28.925Z,9.50
2017-10-27T04:30:32.569Z,9.40
2017-10-27T04:31:35.856Z,9.40
2017-10-27T04:32:38.375Z,9.40
2017-10-27T04:33:41.089Z,9.30
2017-10-27T04:34:43.715Z,9.30
2017-10-27T04:35:46.511Z,9.30
2017-10-27T04:36:50.134Z,9.20
2017-10-27T04:37:53.430Z,9.20
2017-10-27T04:38:56.078Z,9.20
2017-10-27T04:39:59.060Z,9.20
2017-10-27T04:41:01.629Z,9.20
2017-10-27T04:42:04.241Z,9.20
2017-10-27T04:43:07.056Z,9.20
2017-10-27T04:44:10.911Z,9.20
2017-10-27T04:45:13.638Z,9.30
2017-10-27T04:46:16.317Z,9.40
2017-10-27T04:47:18.804Z,9.40
2017-10-27T04:48:21.524Z,9.50
2017-10-27T04:49:24.822Z,9.50
2017-10-27T04:50:27.492Z,9.60
2017-10-27T04:51:29.964Z,9.50
2017-10-27T04:52:32.627Z,9.40
2017-10-27T04:53:35.379Z,9.30
2017-10-27T04:54:38.787Z,9.40
2017-10-27T04:55:41.299Z,9.40
2017-10-27T04:56:44.118Z,9.30
2017-10-27T04:57:46.697Z,9.30
2017-10-27T04:58:49.393Z,9.30
2017-10-27T04:59:51.900Z,9.20
2017-10-27T05:00:55.457Z,9.20
2017-10-27T05:01:58.028Z,9.20
2017-10-27T05:03:00.855Z,9.20
2017-10-27T05:04:03.500Z,9.30
2017-10-27T05:05:07.062Z,9.40
2017-10-27T05:06:09.590Z,9.40
2017-10-27T05:07:12.278Z,9.40
2017-10-27T05:08:14.823Z,9.50
2017-10-27T05:09:17.307Z,9.50
2017-10-27T05:10:19.855Z,9.60
2017-10-27T05:11:22.835Z,9.60
2017-10-27T05:12:25.321Z,9.70
2017-10-27T05:13:27.787Z,9.70
2017-10-27T05:14:30.355Z,9.70
2017-10-27T05:15:32.837Z,9.70
2017-10-27T05:16:41.222Z,9.70
2017-10-27T05:17:49.492Z,9.80
2017-10-27T05:18:57.851Z,9.80
2017-10-27T05:20:06.082Z,9.80
2017-10-27T05:21:15.149Z,9.80
2017-10-27T05:22:23.388Z,9.70
2017-10-27T05:23:32.641Z,9.70
2017-10-27T05:24:35.207Z,9.70
2017-10-27T05:25:37.924Z,9.60
2017-10-27T05:26:42.289Z,9.50
2017-10-27T05:27:44.808Z,9.50
2017-10-27T05:28:47.419Z,9.50
2017-10-27T05:29:50.228Z,9.50
2017-10-27T05:30:52.696Z,9.40
2017-10-27T05:31:55.464Z,9.40
2017-10-27T05:32:57.949Z,9.40
2017-10-27T05:34:00.517Z,9.50
2017-10-27T05:35:03.085Z,9.50
2017-10-27T05:36:06.036Z,9.50
2017-10-27T05:37:08.620Z,9.50
2017-10-27T05:38:12.110Z,9.50
2017-10-27T05:39:14.763Z,9.50
2017-10-27T05:40:17.435Z,9.50
2017-10-27T05:41:24.899Z,9.50
2017-10-27T05:42:27.382Z,9.50
2017-10-27T05:43:29.852Z,9.60
2017-10-27T05:44:32.406Z,9.60
2017-10-27T05:45:34.918Z,9.70
2017-10-27T05:46:39.360Z,9.70
2017-10-27T05:47:41.829Z,9.70
2017-10-27T05:48:45.187Z,9.70
2017-10-27T05:49:48.460Z,9.70
2017-10-27T05:50:51.826Z,9.60
2017-10-27T05:51:55.201Z,9.60
2017-10-27T05:52:57.786Z,9.60
2017-10-27T05:54:00.267Z,9.50
2017-10-27T05:55:03.692Z,9.40
2017-10-27T05:56:06.265Z,9.30
2017-10-27T05:57:09.068Z,9.30
2017-10-27T05:58:11.560Z,9.30
2017-10-27T05:59:14.989Z,9.30
2017-10-27T06:00:17.479Z,9.30
2017-10-27T06:01:20.039Z,9.20
2017-10-27T06:02:23.532Z,9.30
2017-10-27T06:03:26.359Z,9.30
2017-10-27T06:04:28.831Z,9.20
2017-10-27T06:05:31.333Z,9.20
2017-10-27T06:06:33.856Z,9.20
2017-10-27T06:07:37.093Z,9.10
2017-10-27T06:08:39.562Z,9.10
2017-10-27T06:09:43.162Z,9.10
2017-10-27T06:10:45.635Z,9.00
2017-10-27T06:11:48.959Z,9.00
2017-10-27T06:12:51.590Z,9.00
2017-10-27T06:13:54.838Z,8.90
2017-10-27T06:14:58.108Z,8.90
2017-10-27T06:16:00.591Z,8.90
2017-10-27T06:17:03.151Z,8.80
2017-10-27T06:18:05.658Z,8.80
2017-10-27T06:19:09.284Z,8.90
2017-10-27T06:20:11.940Z,8.80
2017-10-27T06:21:14.491Z,8.90
2017-10-27T06:22:17.050Z,8.90
2017-10-27T06:23:19.892Z,9.00
2017-10-27T06:24:23.174Z,9.10
2017-10-27T06:25:25.795Z,9.10
2017-10-27T06:26:28.412Z,9.20
2017-10-27T06:27:31.061Z,9.30
2017-10-27T06:28:33.579Z,9.40
2017-10-27T06:29:37.117Z,9.50
2017-10-27T06:30:39.855Z,9.50
2017-10-27T06:31:42.392Z,9.60
2017-10-27T06:32:45.653Z,9.70
2017-10-27T06:33:48.316Z,9.70
2017-10-27T06:34:50.841Z,9.70
2017-10-27T06:35:53.351Z,9.70
2017-10-27T06:36:55.842Z,9.70
2017-10-27T06:37:59.463Z,9.70
2017-10-27T06:39:01.968Z,9.60
2017-10-27T06:40:04.640Z,9.70
2017-10-27T06:41:07.151Z,9.70
2017-10-27T06:42:11.852Z,9.70
2017-10-27T06:43:14.335Z,9.70
2017-10-27T06:44:17.836Z,9.70
2017-10-27T06:45:20.373Z,9.70
2017-10-27T06:46:23.612Z,9.70
2017-10-27T06:47:26.223Z,9.60
2017-10-27T06:48:29.679Z,9.70
2017-10-27T06:49:32.256Z,9.70
2017-10-27T06:50:35.026Z,9.80
2017-10-27T06:51:37.524Z,9.90
2017-10-27T06:52:40.109Z,9.90
2017-10-27T06:53:42.595Z,10.00
2017-10-27T06:54:45.160Z,10.10
2017-10-27T06:55:48.955Z,10.10
2017-10-27T06:56:51.669Z,10.20
2017-10-27T06:57:54.197Z,10.20
2017-10-27T06:58:56.795Z,10.30
2017-10-27T06:59:59.294Z,10.40
2017-10-27T07:01:03.244Z,10.30
2017-10-27T07:02:05.757Z,10.30
2017-10-27T07:03:09.573Z,10.20
2017-10-27T07:04:12.057Z,10.20
2017-10-27T07:05:14.528Z,10.20
2017-10-27T07:06:17.069Z,10.20
2017-10-27T07:07:19.685Z,10.20
2017-10-27T07:08:22.251Z,10.30
2017-10-27T07:09:25.625Z,10.40
2017-10-27T07:10:28.126Z,10.40
2017-10-27T07:11:31.504Z,10.60
2017-10-27T07:12:33.991Z,10.60
2017-10-27T07:13:36.506Z,10.70
2017-10-27T07:14:39.116Z,10.80
2017-10-27T07:15:42.481Z,11.00
2017-10-27T07:16:45.090Z,11.00
2017-10-27T07:17:47.806Z,11.10
2017-10-27T07:18:50.295Z,11.10
2017-10-27T07:19:54.022Z,11.00
2017-10-27T07:20:56.566Z,10.90
2017-10-27T07:22:00.284Z,10.90
2017-10-27T07:23:02.794Z,10.90
2017-10-27T07:24:05.356Z,10.80
2017-10-27T07:25:08.999Z,10.80
2017-10-27T07:26:13.439Z,10.80
2017-10-27T07:27:15.924Z,10.80
2017-10-27T07:28:18.564Z,10.70
2017-10-27T07:29:21.171Z,10.60
2017-10-27T07:30:23.837Z,10.70
2017-10-27T07:31:26.324Z,10.80
2017-10-27T07:32:29.809Z,11.10
2017-10-27T07:33:33.328Z,11.20
2017-10-27T07:34:36.045Z,11.20
2017-10-27T07:35:38.562Z,11.40
2017-10-27T07:36:41.058Z,11.60
2017-10-27T07:37:43.556Z,11.70
2017-10-27T07:38:46.128Z,12.00
2017-10-27T07:39:48.653Z,12.00
2017-10-27T07:40:52.087Z,12.10
2017-10-27T07:41:54.788Z,12.10
2017-10-27T07:42:58.758Z,12.10
2017-10-27T07:44:02.027Z,11.90
2017-10-27T07:45:06.963Z,12.00
2017-10-27T07:46:11.198Z,11.80
2017-10-27T07:47:14.698Z,11.80
2017-10-27T07:48:19.730Z,11.60
2017-10-27T07:49:25.405Z,11.40
2017-10-27T07:50:27.919Z,11.40
2017-10-27T07:51:33.163Z,11.50
2017-10-27T07:52:35.690Z,11.60
2017-10-27T07:53:44.226Z,11.90
2017-10-27T07:54:46.807Z,11.80
2017-10-27T07:55:49.790Z,12.00
2017-10-27T07:56:52.308Z,12.20
2017-10-27T07:57:55.696Z,12.30
2017-10-27T07:58:58.997Z,11.90
2017-10-27T08:00:01.639Z,12.00
2017-10-27T08:01:04.215Z,11.90
2017-10-27T08:02:07.788Z,12.10
2017-10-27T08:03:10.318Z,12.00
2017-10-27T08:04:13.707Z,12.10
2017-10-27T08:05:16.179Z,12.10
2017-10-27T08:06:18.976Z,12.60
2017-10-27T08:07:22.358Z,14.80
2017-10-27T08:08:25.142Z,14.80
2017-10-27T08:09:28.515Z,15.40
2017-10-27T08:10:32.202Z,16.10
2017-10-27T08:11:36.087Z,17.30
2017-10-27T08:12:44.430Z,18.00
2017-10-27T08:13:47.904Z,18.60
2017-10-27T08:14:51.828Z,18.60
2017-10-27T08:16:01.353Z,19.70
2017-10-27T08:17:04.619Z,19.90
2017-10-27T08:18:08.395Z,19.90
2017-10-27T08:19:11.850Z,19.70
2017-10-27T08:20:17.317Z,20.20
2017-10-27T08:21:19.950Z,20.90
2017-10-27T08:22:22.529Z,20.70
2017-10-27T08:23:25.917Z,20.80
2017-10-27T08:24:28.814Z,20.80
2017-10-27T08:25:32.517Z,19.50
2017-10-27T08:26:35.001Z,20.10
2017-10-27T08:27:37.819Z,20.80
2017-10-27T08:28:40.510Z,19.50
2017-10-27T08:29:43.277Z,18.90
2017-10-27T08:30:46.926Z,19.20
2017-10-27T08:31:50.403Z,19.70
2017-10-27T08:32:53.014Z,19.60
2017-10-27T08:33:55.640Z,20.00
2017-10-27T08:34:59.992Z,20.90
2017-10-27T08:36:02.831Z,20.90
2017-10-27T08:37:05.375Z,20.50
2017-10-27T08:38:08.281Z,19.50
2017-10-27T08:39:11.667Z,20.00
2017-10-27T08:40:15.386Z,21.10
2017-10-27T08:41:18.870Z,21.10
2017-10-27T08:42:26.506Z,21.60
2017-10-27T08:43:29.061Z,21.40
2017-10-27T08:44:31.874Z,21.40
2017-10-27T08:45:36.204Z,20.50
2017-10-27T08:46:38.911Z,20.40
2017-10-27T08:47:42.979Z,21.00
2017-10-27T08:48:45.763Z,19.80
2017-10-27T08:49:49.898Z,19.50
2017-10-27T08:50:53.518Z,19.70
2017-10-27T08:51:56.813Z,19.70
2017-10-27T08:53:05.531Z,19.80
2017-10-27T08:54:09.441Z,20.10
2017-10-27T08:55:12.200Z,20.10
2017-10-27T08:56:14.857Z,20.30
2017-10-27T08:57:19.754Z,20.60
2017-10-27T08:58:22.262Z,20.50
2017-10-27T08:59:25.099Z,20.50
2017-10-27T09:00:27.611Z,20.10
2017-10-27T09:01:30.246Z,19.70
2017-10-27T09:02:33.668Z,20.40
2017-10-27T09:03:36.238Z,20.40
2017-10-27T09:04:38.898Z,19.80
2017-10-27T09:05:41.742Z,20.20
2017-10-27T09:06:45.361Z,19.90
2017-10-27T09:07:48.099Z,19.80
2017-10-27T09:08:51.202Z,19.40
2017-10-27T09:09:55.635Z,20.10
2017-10-27T09:10:58.154Z,20.10
2017-10-27T09:12:01.574Z,18.30
2017-10-27T09:13:05.708Z,17.80
2017-10-27T09:14:08.701Z,17.70
2017-10-27T09:15:11.858Z,18.50
2017-10-27T09:16:14.888Z,18.20
2017-10-27T09:17:17.978Z,18.50
2017-10-27T09:18:21.308Z,18.30
2017-10-27T09:19:25.372Z,19.00
2017-10-27T09:20:29.019Z,19.00
2017-10-27T09:21:33.990Z,18.60
2017-10-27T09:22:37.406Z,17.40
2017-10-27T09:23:41.095Z,17.10
2017-10-27T09:24:46.732Z,15.90
2017-10-27T09:25:50.207Z,16.50
2017-10-27T09:26:54.029Z,17.10
2017-10-27T09:28:00.926Z,17.50
2017-10-27T09:29:04.228Z,16.60
2017-10-27T09:30:07.648Z,15.90
2017-10-27T09:31:10.273Z,15.90
2017-10-27T09:32:13.061Z,15.10
2017-10-27T09:33:16.387Z,16.40
2017-10-27T09:34:19.257Z,16.30
2017-10-27T09:35:21.816Z,16.00
2017-10-27T09:36:24.514Z,15.50
2017-10-27T09:37:27.045Z,15.00
2017-10-27T09:38:35.481Z,14.70
2017-10-27T09:39:38.032Z,14.50
2017-10-27T09:40:40.646Z,14.20
2017-10-27T09:41:44.115Z,14.20
2017-10-27T09:42:46.881Z,14.20
2017-10-27T09:43:49.381Z,14.50
2017-10-27T09:44:52.777Z,14.50
2017-10-27T09:45:56.044Z,14.50
2017-10-27T09:46:59.985Z,14.50
2017-10-27T09:48:02.822Z,14.30
2017-10-27T09:49:07.232Z,14.30
2017-10-27T09:50:10.577Z,14.00
2017-10-27T09:51:14.369Z,14.00
2017-10-27T09:52:17.529Z,13.90
2017-10-27T09:53:21.365Z,13.90
2017-10-27T09:54:23.968Z,13.90
2017-10-27T09:55:27.282Z,14.10
2017-10-27T09:56:29.764Z,14.10
2017-10-27T09:57:32.295Z,14.10
2017-10-27T09:58:35.609Z,14.10
2017-10-27T09:59:39.122Z,14.10
2017-10-27T10:00:41.751Z,14.00
2017-10-27T10:01:44.463Z,14.00
2017-10-27T10:02:48.390Z,14.10
2017-10-27T10:03:51.652Z,14.40
2017-10-27T10:04:55.831Z,14.30
2017-10-27T10:05:58.529Z,14.50
2017-10-27T10:07:01.016Z,14.60
2017-10-27T10:08:06.073Z,14.60
2017-10-27T10:09:09.864Z,14.40
2017-10-27T10:10:12.595Z,14.40
2017-10-27T10:11:15.900Z,14.60
2017-10-27T10:12:19.217Z,14.80
2017-10-27T10:13:21.792Z,14.80
2017-10-27T10:14:27.042Z,14.80
2017-10-27T10:15:29.599Z,14.90
2017-10-27T10:16:32.360Z,14.90
2017-10-27T10:17:35.631Z,15.10
2017-10-27T10:18:40.339Z,15.10
2017-10-27T10:19:43.050Z,15.30
2017-10-27T10:20:45.784Z,15.10
2017-10-27T10:21:48.348Z,14.80
2017-10-27T10:22:52.100Z,14.60
2017-10-27T10:23:54.644Z,14.80
2017-10-27T10:24:58.133Z,15.00
2017-10-27T10:26:00.663Z,15.10
2017-10-27T10:27:04.477Z,15.10
2017-10-27T10:28:06.976Z,15.10
2017-10-27T10:29:09.587Z,15.10
2017-10-27T10:30:12.120Z,15.10
2017-10-27T10:31:15.093Z,15.10
2017-10-27T10:32:17.700Z,15.20
2017-10-27T10:33:20.232Z,15.40
2017-10-27T10:34:23.522Z,15.20
2017-10-27T10:35:26.837Z,15.40
2017-10-27T10:36:29.410Z,15.30
2017-10-27T10:37:34.959Z,15.50
2017-10-27T10:38:37.434Z,15.60
2017-10-27T10:39:39.932Z,15.60
2017-10-27T10:40:50.685Z,15.40
2017-10-27T10:41:53.811Z,15.10
2017-10-27T10:42:56.593Z,14.90
2017-10-27T10:43:59.122Z,14.90
2017-10-27T10:45:02.461Z,14.90
2017-10-27T10:46:05.363Z,14.80
2017-10-27T10:47:08.147Z,15.10
2017-10-27T10:48:10.660Z,15.20
2017-10-27T10:49:13.835Z,15.00
2017-10-27T10:50:17.155Z,14.90
2017-10-27T10:51:23.781Z,14.70
2017-10-27T10:52:26.319Z,14.40
2017-10-27T10:53:31.784Z,13.90
2017-10-27T10:54:34.677Z,13.90
2017-10-27T10:55:37.603Z,13.70
2017-10-27T10:56:40.995Z,13.20
2017-10-27T10:57:44.016Z,13.20
2017-10-27T10:58:51.799Z,12.90
2017-10-27T10:59:55.319Z,12.80
2017-10-27T11:00:58.023Z,12.60
2017-10-27T11:02:00.776Z,12.50
2017-10-27T11:03:03.621Z,12.50
2017-10-27T11:04:06.225Z,12.50
2017-10-27T11:05:09.404Z,12.60
2017-10-27T11:06:12.529Z,12.60
2017-10-27T11:07:15.722Z,12.70
2017-10-27T11:08:20.752Z,12.80
2017-10-27T11:09:23.532Z,12.80
2017-10-27T11:10:26.952Z,12.90
2017-10-27T11:11:30.627Z,13.00
2017-10-27T11:12:34.706Z,13.10
2017-10-27T11:13:37.285Z,13.20
2017-10-27T11:14:40.260Z,13.30
2017-10-27T11:15:43.168Z,13.30
2017-10-27T11:16:46.775Z,13.60
2017-10-27T11:17:52.875Z,13.60
2017-10-27T11:18:58.426Z,13.70
2017-10-27T11:20:00.966Z,13.90
2017-10-27T11:21:04.588Z,14.10
2017-10-27T11:22:07.251Z,14.10
2017-10-27T11:23:10.412Z,14.20
2017-10-27T11:24:13.812Z,14.20
2017-10-27T11:25:16.614Z,14.20
2017-10-27T11:26:22.994Z,14.20
2017-10-27T11:27:27.682Z,14.20
2017-10-27T11:28:31.031Z,14.20
2017-10-27T11:29:38.113Z,14.20
2017-10-27T11:30:42.112Z,14.20
2017-10-27T11:31:46.976Z,14.20
2017-10-27T11:32:51.246Z,14.20
2017-10-27T11:33:54.685Z,14.40
2017-10-27T11:34:58.824Z,14.50
2017-10-27T11:36:03.715Z,14.60
2017-10-27T11:37:06.805Z,14.70
2017-10-27T11:38:12.750Z,14.70
2017-10-27T11:39:15.609Z,14.70
2017-10-27T11:40:19.837Z,14.30
2017-10-27T11:41:24.889Z,14.30
2017-10-27T11:42:29.740Z,14.30
2017-10-27T11:43:36.799Z,14.20
2017-10-27T11:44:40.760Z,14.20
2017-10-27T11:45:48.442Z,14.30
2017-10-27T11:46:52.759Z,14.30
2017-10-27T11:47:55.479Z,14.30
2017-10-27T11:48:59.666Z,14.60
2017-10-27T11:50:02.707Z,14.80
2017-10-27T11:51:05.674Z,15.00
2017-10-27T11:52:08.297Z,15.20
2017-10-27T11:53:12.005Z,15.20
2017-10-27T11:54:15.393Z,15.10
2017-10-27T11:55:19.638Z,15.10
2017-10-27T11:56:22.242Z,15.00
2017-10-27T11:57:25.822Z,14.90
2017-10-27T11:58:29.580Z,14.80
2017-10-27T11:59:34.277Z,14.60
2017-10-27T12:00:38.292Z,14.40
2017-10-27T12:01:42.242Z,14.40
2017-10-27T12:02:45.587Z,14.30
2017-10-27T12:03:53.084Z,14.00
2017-10-27T12:04:57.538Z,13.90
2017-10-27T12:06:01.356Z,13.90
2017-10-27T12:07:04.308Z,13.90
2017-10-27T12:08:07.487Z,13.90
2017-10-27T12:09:13.459Z,13.80
2017-10-27T12:10:16.748Z,13.80
2017-10-27T12:11:19.942Z,13.80
2017-10-27T12:12:24.188Z,13.90
2017-10-27T12:13:28.269Z,13.80
2017-10-27T12:14:32.913Z,13.80
2017-10-27T12:15:36.409Z,13.90
2017-10-27T12:17:45.855Z,13.90
2017-10-27T12:18:49.476Z,14.10
2017-10-27T12:19:52.584Z,14.10
2017-10-27T12:20:55.370Z,14.40
2017-10-27T12:22:15.125Z,14.60
2017-10-27T12:23:20.432Z,14.60
2017-10-27T12:24:24.346Z,14.80
2017-10-27T12:25:28.558Z,14.90
2017-10-27T12:26:32.128Z,15.00
2017-10-27T12:27:38.311Z,15.20
2017-10-27T12:28:41.386Z,15.30
2017-10-27T12:29:45.954Z,15.40
2017-10-27T12:30:51.350Z,15.60
2017-10-27T12:31:54.936Z,15.60
2017-10-27T12:32:57.539Z,15.60
2017-10-27T12:34:00.095Z,15.50
2017-10-27T12:35:06.269Z,15.50
2017-10-27T12:36:08.898Z,15.50
2017-10-27T12:37:11.877Z,15.40
2017-10-27T12:38:15.343Z,15.40
2017-10-27T12:39:19.125Z,15.30
2017-10-27T12:40:21.702Z,15.40
2017-10-27T12:41:25.288Z,15.40
2017-10-27T12:42:29.403Z,15.40
2017-10-27T12:43:36.826Z,15.50
2017-10-27T12:44:39.630Z,15.40
2017-10-27T12:45:43.131Z,15.60
2017-10-27T12:46:47.193Z,15.50
2017-10-27T12:47:50.791Z,15.50
2017-10-27T12:48:53.547Z,15.50
2017-10-27T12:49:56.505Z,15.40
2017-10-27T12:51:03.855Z,15.30
2017-10-27T12:52:07.538Z,15.30
2017-10-27T12:53:10.701Z,15.30
2017-10-27T12:54:13.757Z,15.20
2017-10-27T12:55:17.129Z,15.10
2017-10-27T12:56:20.888Z,14.80
2017-10-27T12:57:24.291Z,14.60
2017-10-27T12:58:27.664Z,14.30
2017-10-27T12:59:30.160Z,14.30
2017-10-27T13:00:33.949Z,14.10
2017-10-27T13:01:37.816Z,14.00
2017-10-27T13:02:40.543Z,14.00
2017-10-27T13:03:46.125Z,13.80
2017-10-27T13:04:49.051Z,13.60
2017-10-27T13:05:52.462Z,13.30
2017-10-27T13:06:55.363Z,13.20
2017-10-27T13:08:01.199Z,13.10
2017-10-27T13:09:06.080Z,12.90
2017-10-27T13:10:08.642Z,12.90
2017-10-27T13:11:11.887Z,12.90
2017-10-27T13:12:14.442Z,12.90
2017-10-27T13:13:17.154Z,12.90
2017-10-27T13:14:20.184Z,13.00
2017-10-27T13:15:23.014Z,13.00
2017-10-27T13:16:26.056Z,13.10
2017-10-27T13:17:29.920Z,13.00
2017-10-27T13:18:32.519Z,13.00
2017-10-27T13:19:36.590Z,13.00
2017-10-27T13:20:39.236Z,13.10
2017-10-27T13:21:42.675Z,13.10
2017-10-27T13:22:45.854Z,13.10
2017-10-27T13:23:49.896Z,13.10
2017-10-27T13:24:55.030Z,13.10
2017-10-27T13:25:59.159Z,13.10
2017-10-27T13:27:01.711Z,13.00
2017-10-27T13:28:04.519Z,13.00
2017-10-27T13:29:08.165Z,12.90
2017-10-27T13:30:12.160Z,12.90
2017-10-27T13:31:15.306Z,12.90
2017-10-27T13:32:20.561Z,12.90
2017-10-27T13:33:27.677Z,12.90
2017-10-27T13:34:30.470Z,12.90
2017-10-27T13:35:33.087Z,12.90
2017-10-27T13:36:36.740Z,12.90
2017-10-27T13:37:39.246Z,12.90
2017-10-27T13:38:53.076Z,12.90
2017-10-27T13:39:55.802Z,12.90
2017-10-27T13:40:59.904Z,12.90
2017-10-27T13:42:02.392Z,12.90
2017-10-27T13:43:06.011Z,12.90
2017-10-27T13:44:08.530Z,12.90
2017-10-27T13:45:12.040Z,12.90
2017-10-27T13:46:15.330Z,12.80
2017-10-27T13:47:18.730Z,12.90
2017-10-27T13:48:21.604Z,12.80